Main page
METAR-TAF:

METAR-TAF

Airports :

Guadalupe Mountains National Park

Pine Springs, Texas, United States

latitude: 31-49-52N, longitude: 104-48-32W, elevation: 5448 ft

Current weather observation

The report was made 4 hours and 2 minutes ago, at 00:51 UTC
Wind 29 mph from the East/Northeast
Temperature 43°F
Humidity 70%
Pressure 30.21 in. Hg
Visibility: 10 miles
Clear sky

METAR: KGDP 210051Z AUTO 06025KT 10SM CLR 06/01 A3021 RMK AO2 PK WND 06031/2356 SLP222 T00560011

Time: 22:53 (04:53 UTC)


TAF: missing

Weather observations and forecasts of more than 4000 airports (METAR and TAF reports).

The available stations are represented by yellow and red dots on the map.

Hover mouse over dot to see the name of the station.

Then click to see weather observations and forecasts.

To change the map : click on the green buttons with a black cross to zoom in, on the green button with a dash to zoom out, or on the green arrows for adjacent maps.


METAR-TAF: